MKE weather

General Mitchell International Airport
Milwaukee, Wisconsin, United States

Public forecast

Using degrees Fahrenheit for public forecast. Weather courtesy of forecast.io.

Current aviation weather report (METAR) for General Mitchell International Airport

Retrieved 2019/12/05 20:52 UTC (1 hour ago):

KMKE 052052Z VRB04KT 10SM FEW100 BKN190 BKN250 07/M02 A2994 RMK AO2 SLP144 T00671022 56015

Aviation forecast (TAF) for General Mitchell International Airport

Retrieved 2019/12/05 18:51 UTC (3 hours ago):

TAF KMKE 051749Z 0518/0624 18005KT P6SM BKN150 FM060200 22006KT P6SM BKN100 FM060500 27008KT P6SM BKN100 FM060800 32013G22KT P6SM BKN024 FM061000 34014G21KT P6SM SCT030 FM061200 34014G21KT P6SM FEW050